sensor_id;sensor_type;location;lat;lon;timestamp;temperature;humidity
44990;DHT22;30723;51.206;3.326;2022-08-21T00:00:41;16.20;99.90
44990;DHT22;30723;51.206;3.326;2022-08-21T00:03:10;16.20;99.90
44990;DHT22;30723;51.206;3.326;2022-08-21T00:05:45;16.20;99.90
44990;DHT22;30723;51.206;3.326;2022-08-21T00:08:13;16.20;99.90
44990;DHT22;30723;51.206;3.326;2022-08-21T00:10:40;16.10;99.90
44990;DHT22;30723;51.206;3.326;2022-08-21T00:13:08;16.10;99.90
44990;DHT22;30723;51.206;3.326;2022-08-21T00:15:37;16.10;99.90
44990;DHT22;30723;51.206;3.326;2022-08-21T00:18:06;16.10;99.90
44990;DHT22;30723;51.206;3.326;2022-08-21T00:20:33;16.10;99.90
44990;DHT22;30723;51.206;3.326;2022-08-21T00:23:00;16.10;99.90
44990;DHT22;30723;51.206;3.326;2022-08-21T00:25:28;16.10;99.90
44990;DHT22;30723;51.206;3.326;2022-08-21T00:27:55;16.00;99.90
44990;DHT22;30723;51.206;3.326;2022-08-21T00:30:23;16.00;99.90
44990;DHT22;30723;51.206;3.326;2022-08-21T00:32:52;16.00;99.90
44990;DHT22;30723;51.206;3.326;2022-08-21T00:35:24;16.10;99.90
44990;DHT22;30723;51.206;3.326;2022-08-21T00:37:51;16.10;99.90
44990;DHT22;30723;51.206;3.326;2022-08-21T00:40:22;16.10;99.90
44990;DHT22;30723;51.206;3.326;2022-08-21T00:42:49;16.10;99.90
44990;DHT22;30723;51.206;3.326;2022-08-21T00:45:17;16.10;99.90
44990;DHT22;30723;51.206;3.326;2022-08-21T00:47:44;16.00;99.90
44990;DHT22;30723;51.206;3.326;2022-08-21T00:50:12;16.00;99.90
44990;DHT22;30723;51.206;3.326;2022-08-21T00:52:40;16.00;99.90
44990;DHT22;30723;51.206;3.326;2022-08-21T00:55:10;15.90;99.90
44990;DHT22;30723;51.206;3.326;2022-08-21T00:57:46;15.90;99.90
44990;DHT22;30723;51.206;3.326;2022-08-21T01:00:25;15.90;99.90
44990;DHT22;30723;51.206;3.326;2022-08-21T01:02:56;16.00;99.90
44990;DHT22;30723;51.206;3.326;2022-08-21T01:05:23;15.90;99.90
44990;DHT22;30723;51.206;3.326;2022-08-21T01:07:49;15.80;99.90
44990;DHT22;30723;51.206;3.326;2022-08-21T01:10:17;15.80;99.90
44990;DHT22;30723;51.206;3.326;2022-08-21T01:12:44;15.70;99.90
44990;DHT22;30723;51.206;3.326;2022-08-21T01:15:13;15.70;99.90
44990;DHT22;30723;51.206;3.326;2022-08-21T01:17:42;15.70;99.90
44990;DHT22;30723;51.206;3.326;2022-08-21T01:20:10;15.80;99.90
44990;DHT22;30723;51.206;3.326;2022-08-21T01:22:41;15.80;99.90
44990;DHT22;30723;51.206;3.326;2022-08-21T01:25:10;15.80;99.90
44990;DHT22;30723;51.206;3.326;2022-08-21T01:27:45;15.70;99.90
44990;DHT22;30723;51.206;3.326;2022-08-21T01:30:18;15.60;99.90
44990;DHT22;30723;51.206;3.326;2022-08-21T01:32:47;15.60;99.90
44990;DHT22;30723;51.206;3.326;2022-08-21T01:35:15;15.50;99.90
44990;DHT22;30723;51.206;3.326;2022-08-21T01:37:43;15.40;99.90
44990;DHT22;30723;51.206;3.326;2022-08-21T01:40:11;15.40;99.90
44990;DHT22;30723;51.206;3.326;2022-08-21T01:42:39;15.50;99.90
44990;DHT22;30723;51.206;3.326;2022-08-21T01:45:07;15.50;99.90
44990;DHT22;30723;51.206;3.326;2022-08-21T01:47:35;15.40;99.90
44990;DHT22;30723;51.206;3.326;2022-08-21T01:50:03;15.40;99.90
44990;DHT22;30723;51.206;3.326;2022-08-21T01:52:30;15.40;99.90
44990;DHT22;30723;51.206;3.326;2022-08-21T01:54:57;15.40;99.90
44990;DHT22;30723;51.206;3.326;2022-08-21T01:57:24;15.50;99.90
44990;DHT22;30723;51.206;3.326;2022-08-21T01:59:51;15.50;99.90
44990;DHT22;30723;51.206;3.326;2022-08-21T02:02:17;15.50;99.90
44990;DHT22;30723;51.206;3.326;2022-08-21T02:04:44;15.50;99.90
44990;DHT22;30723;51.206;3.326;2022-08-21T02:07:11;15.50;99.90
44990;DHT22;30723;51.206;3.326;2022-08-21T02:09:37;15.50;99.90
44990;DHT22;30723;51.206;3.326;2022-08-21T02:12:05;15.50;99.90
44990;DHT22;30723;51.206;3.326;2022-08-21T02:14:32;15.50;99.90
44990;DHT22;30723;51.206;3.326;2022-08-21T02:16:59;15.50;99.90
44990;DHT22;30723;51.206;3.326;2022-08-21T02:19:25;15.50;99.90
44990;DHT22;30723;51.206;3.326;2022-08-21T02:21:52;15.50;99.90
44990;DHT22;30723;51.206;3.326;2022-08-21T02:24:19;15.50;99.90
44990;DHT22;30723;51.206;3.326;2022-08-21T02:26:46;15.40;99.90
44990;DHT22;30723;51.206;3.326;2022-08-21T02:29:13;15.50;99.90
44990;DHT22;30723;51.206;3.326;2022-08-21T02:31:40;15.50;99.90
44990;DHT22;30723;51.206;3.326;2022-08-21T02:34:07;15.50;99.90
44990;DHT22;30723;51.206;3.326;2022-08-21T02:36:35;15.40;99.90
44990;DHT22;30723;51.206;3.326;2022-08-21T02:39:02;15.40;99.90
44990;DHT22;30723;51.206;3.326;2022-08-21T02:41:29;15.40;99.90
44990;DHT22;30723;51.206;3.326;2022-08-21T02:43:55;15.40;99.90
44990;DHT22;30723;51.206;3.326;2022-08-21T02:46:22;15.30;99.90
44990;DHT22;30723;51.206;3.326;2022-08-21T02:48:49;15.40;99.90
44990;DHT22;30723;51.206;3.326;2022-08-21T02:51:19;15.40;99.90
44990;DHT22;30723;51.206;3.326;2022-08-21T02:53:47;15.30;99.90
44990;DHT22;30723;51.206;3.326;2022-08-21T02:56:17;15.30;99.90
44990;DHT22;30723;51.206;3.326;2022-08-21T02:58:50;15.30;99.90
44990;DHT22;30723;51.206;3.326;2022-08-21T03:01:18;15.20;99.90
44990;DHT22;30723;51.206;3.326;2022-08-21T03:03:46;15.20;99.90
44990;DHT22;30723;51.206;3.326;2022-08-21T03:06:15;15.20;99.90
44990;DHT22;30723;51.206;3.326;2022-08-21T03:08:43;15.20;99.90
44990;DHT22;30723;51.206;3.326;2022-08-21T03:11:12;15.20;99.90
44990;DHT22;30723;51.206;3.326;2022-08-21T03:13:38;15.10;99.90
44990;DHT22;30723;51.206;3.326;2022-08-21T03:16:06;15.20;99.90
44990;DHT22;30723;51.206;3.326;2022-08-21T03:18:33;15.20;99.90
44990;DHT22;30723;51.206;3.326;2022-08-21T03:21:00;15.10;99.90
44990;DHT22;30723;51.206;3.326;2022-08-21T03:23:27;15.10;99.90
44990;DHT22;30723;51.206;3.326;2022-08-21T03:25:53;15.10;99.90
44990;DHT22;30723;51.206;3.326;2022-08-21T03:28:21;15.10;99.90
44990;DHT22;30723;51.206;3.326;2022-08-21T03:30:51;15.00;99.90
44990;DHT22;30723;51.206;3.326;2022-08-21T03:33:19;15.10;99.90
44990;DHT22;30723;51.206;3.326;2022-08-21T03:35:51;15.10;99.90
44990;DHT22;30723;51.206;3.326;2022-08-21T03:38:19;15.10;99.90
44990;DHT22;30723;51.206;3.326;2022-08-21T03:40:46;15.10;99.90
44990;DHT22;30723;51.206;3.326;2022-08-21T03:43:12;15.00;99.90
44990;DHT22;30723;51.206;3.326;2022-08-21T03:45:39;15.00;99.90
44990;DHT22;30723;51.206;3.326;2022-08-21T03:48:07;15.00;99.90
44990;DHT22;30723;51.206;3.326;2022-08-21T03:50:39;15.10;99.90
44990;DHT22;30723;51.206;3.326;2022-08-21T03:53:05;15.00;99.90
44990;DHT22;30723;51.206;3.326;2022-08-21T03:55:32;15.00;99.90
44990;DHT22;30723;51.206;3.326;2022-08-21T03:57:59;15.10;99.90
44990;DHT22;30723;51.206;3.326;2022-08-21T04:00:26;15.10;99.90
44990;DHT22;30723;51.206;3.326;2022-08-21T04:02:53;15.10;99.90
44990;DHT22;30723;51.206;3.326;2022-08-21T04:05:20;15.10;99.90
44990;DHT22;30723;51.206;3.326;2022-08-21T04:08:03;15.10;99.90
44990;DHT22;30723;51.206;3.326;2022-08-21T04:10:33;15.10;99.90
44990;DHT22;30723;51.206;3.326;2022-08-21T04:13:00;15.00;99.90
44990;DHT22;30723;51.206;3.326;2022-08-21T04:15:28;15.00;99.90
44990;DHT22;30723;51.206;3.326;2022-08-21T04:17:55;15.00;99.90
44990;DHT22;30723;51.206;3.326;2022-08-21T04:20:22;15.00;99.90
44990;DHT22;30723;51.206;3.326;2022-08-21T04:22:50;15.00;99.90
44990;DHT22;30723;51.206;3.326;2022-08-21T04:25:18;15.00;99.90
44990;DHT22;30723;51.206;3.326;2022-08-21T04:27:46;15.00;99.90
44990;DHT22;30723;51.206;3.326;2022-08-21T04:30:15;15.00;99.90
44990;DHT22;30723;51.206;3.326;2022-08-21T04:32:49;15.00;99.90
44990;DHT22;30723;51.206;3.326;2022-08-21T04:35:18;15.10;99.90
44990;DHT22;30723;51.206;3.326;2022-08-21T04:37:46;15.10;99.90
44990;DHT22;30723;51.206;3.326;2022-08-21T04:40:14;15.10;99.90
44990;DHT22;30723;51.206;3.326;2022-08-21T04:42:44;15.10;99.90
44990;DHT22;30723;51.206;3.326;2022-08-21T04:45:23;15.10;99.90
44990;DHT22;30723;51.206;3.326;2022-08-21T04:47:52;15.10;99.90
44990;DHT22;30723;51.206;3.326;2022-08-21T04:50:20;15.10;99.90
44990;DHT22;30723;51.206;3.326;2022-08-21T04:52:49;15.10;99.90
44990;DHT22;30723;51.206;3.326;2022-08-21T04:55:17;15.20;99.90
44990;DHT22;30723;51.206;3.326;2022-08-21T04:57:44;15.20;99.90
44990;DHT22;30723;51.206;3.326;2022-08-21T05:00:13;15.20;99.90
44990;DHT22;30723;51.206;3.326;2022-08-21T05:02:42;15.20;99.90
44990;DHT22;30723;51.206;3.326;2022-08-21T05:05:09;15.20;99.90
44990;DHT22;30723;51.206;3.326;2022-08-21T05:07:36;15.20;99.90
44990;DHT22;30723;51.206;3.326;2022-08-21T05:10:05;15.10;99.90
44990;DHT22;30723;51.206;3.326;2022-08-21T05:12:34;15.20;99.90
44990;DHT22;30723;51.206;3.326;2022-08-21T05:15:01;15.20;99.90
44990;DHT22;30723;51.206;3.326;2022-08-21T05:17:28;15.20;99.90
44990;DHT22;30723;51.206;3.326;2022-08-21T05:19:55;15.20;99.90
44990;DHT22;30723;51.206;3.326;2022-08-21T05:22:23;15.30;99.90
44990;DHT22;30723;51.206;3.326;2022-08-21T05:24:51;15.30;99.90
44990;DHT22;30723;51.206;3.326;2022-08-21T05:27:18;15.40;99.90
44990;DHT22;30723;51.206;3.326;2022-08-21T05:29:45;15.40;99.90
44990;DHT22;30723;51.206;3.326;2022-08-21T05:32:13;15.40;99.90
44990;DHT22;30723;51.206;3.326;2022-08-21T05:34:40;15.50;99.90
44990;DHT22;30723;51.206;3.326;2022-08-21T05:37:06;15.50;99.90
44990;DHT22;30723;51.206;3.326;2022-08-21T05:39:33;15.50;99.90
44990;DHT22;30723;51.206;3.326;2022-08-21T05:42:00;15.60;99.90
44990;DHT22;30723;51.206;3.326;2022-08-21T05:44:26;15.70;99.90
44990;DHT22;30723;51.206;3.326;2022-08-21T05:46:53;15.80;99.90
44990;DHT22;30723;51.206;3.326;2022-08-21T05:49:20;15.80;99.90
44990;DHT22;30723;51.206;3.326;2022-08-21T05:51:47;15.90;99.90
44990;DHT22;30723;51.206;3.326;2022-08-21T05:54:13;16.00;99.90
44990;DHT22;30723;51.206;3.326;2022-08-21T05:56:39;16.10;99.90
44990;DHT22;30723;51.206;3.326;2022-08-21T05:59:06;16.20;99.90
44990;DHT22;30723;51.206;3.326;2022-08-21T06:01:33;16.50;99.90
44990;DHT22;30723;51.206;3.326;2022-08-21T06:04:00;16.60;99.90
44990;DHT22;30723;51.206;3.326;2022-08-21T06:06:27;16.90;99.90
44990;DHT22;30723;51.206;3.326;2022-08-21T06:08:54;17.10;99.90
44990;DHT22;30723;51.206;3.326;2022-08-21T06:11:20;17.30;99.90
44990;DHT22;30723;51.206;3.326;2022-08-21T06:13:47;17.70;99.90
44990;DHT22;30723;51.206;3.326;2022-08-21T06:16:16;18.00;99.90
44990;DHT22;30723;51.206;3.326;2022-08-21T06:18:44;18.30;99.90
44990;DHT22;30723;51.206;3.326;2022-08-21T06:21:12;18.50;99.90
44990;DHT22;30723;51.206;3.326;2022-08-21T06:23:40;18.70;99.90
44990;DHT22;30723;51.206;3.326;2022-08-21T06:26:08;19.00;99.90
44990;DHT22;30723;51.206;3.326;2022-08-21T06:28:35;19.30;99.90
44990;DHT22;30723;51.206;3.326;2022-08-21T06:31:09;19.50;99.90
44990;DHT22;30723;51.206;3.326;2022-08-21T06:33:37;19.70;99.90
44990;DHT22;30723;51.206;3.326;2022-08-21T06:36:05;20.00;99.90
44990;DHT22;30723;51.206;3.326;2022-08-21T06:38:31;20.30;99.90
44990;DHT22;30723;51.206;3.326;2022-08-21T06:40:59;20.50;99.90
44990;DHT22;30723;51.206;3.326;2022-08-21T06:43:25;20.70;99.90
44990;DHT22;30723;51.206;3.326;2022-08-21T06:45:52;20.80;99.90
44990;DHT22;30723;51.206;3.326;2022-08-21T06:48:19;21.20;99.90
44990;DHT22;30723;51.206;3.326;2022-08-21T06:50:46;21.60;99.90
44990;DHT22;30723;51.206;3.326;2022-08-21T06:53:14;21.90;99.90
44990;DHT22;30723;51.206;3.326;2022-08-21T06:55:41;22.00;99.90
44990;DHT22;30723;51.206;3.326;2022-08-21T06:58:09;22.10;99.90
44990;DHT22;30723;51.206;3.326;2022-08-21T07:00:40;22.00;99.90
44990;DHT22;30723;51.206;3.326;2022-08-21T07:03:07;21.70;99.90
44990;DHT22;30723;51.206;3.326;2022-08-21T07:05:34;22.00;99.90
44990;DHT22;30723;51.206;3.326;2022-08-21T07:08:00;22.10;99.90
44990;DHT22;30723;51.206;3.326;2022-08-21T07:10:27;21.90;99.90
44990;DHT22;30723;51.206;3.326;2022-08-21T07:12:55;21.90;99.90
44990;DHT22;30723;51.206;3.326;2022-08-21T07:15:21;22.10;99.90
44990;DHT22;30723;51.206;3.326;2022-08-21T07:17:48;22.00;99.90
44990;DHT22;30723;51.206;3.326;2022-08-21T07:20:15;21.90;99.90
44990;DHT22;30723;51.206;3.326;2022-08-21T07:22:42;21.90;99.90
44990;DHT22;30723;51.206;3.326;2022-08-21T07:25:09;21.80;99.90
44990;DHT22;30723;51.206;3.326;2022-08-21T07:27:36;22.00;99.90
44990;DHT22;30723;51.206;3.326;2022-08-21T07:30:04;22.10;99.90
44990;DHT22;30723;51.206;3.326;2022-08-21T07:32:32;22.30;99.90
44990;DHT22;30723;51.206;3.326;2022-08-21T07:34:58;22.20;99.90
44990;DHT22;30723;51.206;3.326;2022-08-21T07:37:25;22.60;99.90
44990;DHT22;30723;51.206;3.326;2022-08-21T07:39:51;22.80;99.90
44990;DHT22;30723;51.206;3.326;2022-08-21T07:42:18;22.90;99.90
44990;DHT22;30723;51.206;3.326;2022-08-21T07:44:45;23.10;99.90
44990;DHT22;30723;51.206;3.326;2022-08-21T07:47:11;23.20;99.90
44990;DHT22;30723;51.206;3.326;2022-08-21T07:49:38;23.10;99.90
44990;DHT22;30723;51.206;3.326;2022-08-21T07:52:05;22.90;99.90
44990;DHT22;30723;51.206;3.326;2022-08-21T07:54:31;23.10;99.90
44990;DHT22;30723;51.206;3.326;2022-08-21T07:56:58;23.30;99.90
44990;DHT22;30723;51.206;3.326;2022-08-21T07:59:24;23.60;99.90
44990;DHT22;30723;51.206;3.326;2022-08-21T08:01:51;23.80;99.90
44990;DHT22;30723;51.206;3.326;2022-08-21T08:04:18;24.00;99.90
44990;DHT22;30723;51.206;3.326;2022-08-21T08:06:44;23.60;99.90
44990;DHT22;30723;51.206;3.326;2022-08-21T08:09:11;23.40;99.90
44990;DHT22;30723;51.206;3.326;2022-08-21T08:11:40;23.70;99.90
44990;DHT22;30723;51.206;3.326;2022-08-21T08:14:08;24.10;99.90
44990;DHT22;30723;51.206;3.326;2022-08-21T08:16:34;24.60;99.90
44990;DHT22;30723;51.206;3.326;2022-08-21T08:19:01;24.80;99.90
44990;DHT22;30723;51.206;3.326;2022-08-21T08:21:29;25.30;99.90
44990;DHT22;30723;51.206;3.326;2022-08-21T08:23:56;26.20;99.90
44990;DHT22;30723;51.206;3.326;2022-08-21T08:26:22;26.50;99.90
44990;DHT22;30723;51.206;3.326;2022-08-21T08:28:49;27.10;99.90
44990;DHT22;30723;51.206;3.326;2022-08-21T08:31:15;28.00;99.90
44990;DHT22;30723;51.206;3.326;2022-08-21T08:33:43;27.50;99.90
44990;DHT22;30723;51.206;3.326;2022-08-21T08:36:17;27.80;99.90
44990;DHT22;30723;51.206;3.326;2022-08-21T08:38:44;27.70;99.90
44990;DHT22;30723;51.206;3.326;2022-08-21T08:41:19;26.80;99.90
44990;DHT22;30723;51.206;3.326;2022-08-21T08:43:58;25.80;99.90
44990;DHT22;30723;51.206;3.326;2022-08-21T08:49:19;24.30;99.90
44990;DHT22;30723;51.206;3.326;2022-08-21T08:51:54;23.70;99.90
44990;DHT22;30723;51.206;3.326;2022-08-21T08:54:29;23.50;99.90
44990;DHT22;30723;51.206;3.326;2022-08-21T08:57:18;23.80;99.90
44990;DHT22;30723;51.206;3.326;2022-08-21T09:00:06;24.60;99.90
44990;DHT22;30723;51.206;3.326;2022-08-21T09:02:34;25.10;99.90
44990;DHT22;30723;51.206;3.326;2022-08-21T09:05:02;25.80;99.90
44990;DHT22;30723;51.206;3.326;2022-08-21T09:07:43;26.80;99.90
44990;DHT22;30723;51.206;3.326;2022-08-21T09:10:12;27.70;99.90
44990;DHT22;30723;51.206;3.326;2022-08-21T09:13:06;28.80;99.90
44990;DHT22;30723;51.206;3.326;2022-08-21T09:18:34;27.90;99.90
44990;DHT22;30723;51.206;3.326;2022-08-21T09:24:01;28.20;98.90
44990;DHT22;30723;51.206;3.326;2022-08-21T09:27:04;27.40;99.90
44990;DHT22;30723;51.206;3.326;2022-08-21T09:29:37;27.60;99.70
44990;DHT22;30723;51.206;3.326;2022-08-21T09:32:27;27.90;98.30
44990;DHT22;30723;51.206;3.326;2022-08-21T09:35:15;28.90;96.60
44990;DHT22;30723;51.206;3.326;2022-08-21T09:38:00;29.10;95.40
44990;DHT22;30723;51.206;3.326;2022-08-21T09:40:45;29.00;95.40
44990;DHT22;30723;51.206;3.326;2022-08-21T09:45:41;27.90;96.10
44990;DHT22;30723;51.206;3.326;2022-08-21T09:48:19;27.70;96.80
44990;DHT22;30723;51.206;3.326;2022-08-21T09:50:47;28.20;96.30
44990;DHT22;30723;51.206;3.326;2022-08-21T09:53:24;28.80;95.30
44990;DHT22;30723;51.206;3.326;2022-08-21T09:55:59;29.60;93.70
44990;DHT22;30723;51.206;3.326;2022-08-21T09:58:48;30.40;92.60
44990;DHT22;30723;51.206;3.326;2022-08-21T10:01:23;30.00;91.40
44990;DHT22;30723;51.206;3.326;2022-08-21T10:04:08;30.00;92.10
44990;DHT22;30723;51.206;3.326;2022-08-21T10:06:36;29.60;91.60
44990;DHT22;30723;51.206;3.326;2022-08-21T10:09:25;29.80;90.60
44990;DHT22;30723;51.206;3.326;2022-08-21T10:15:13;29.70;89.50
44990;DHT22;30723;51.206;3.326;2022-08-21T10:26:35;31.20;83.60
44990;DHT22;30723;51.206;3.326;2022-08-21T10:29:21;31.50;83.50
44990;DHT22;30723;51.206;3.326;2022-08-21T10:40:40;27.50;90.20
44990;DHT22;30723;51.206;3.326;2022-08-21T10:43:34;27.50;90.30
44990;DHT22;30723;51.206;3.326;2022-08-21T10:52:00;29.50;88.80
44990;DHT22;30723;51.206;3.326;2022-08-21T10:57:08;29.90;85.70
44990;DHT22;30723;51.206;3.326;2022-08-21T11:02:13;30.00;83.30
44990;DHT22;30723;51.206;3.326;2022-08-21T11:04:54;28.80;83.40
44990;DHT22;30723;51.206;3.326;2022-08-21T11:07:43;27.80;87.90
44990;DHT22;30723;51.206;3.326;2022-08-21T11:10:37;27.50;89.90
44990;DHT22;30723;51.206;3.326;2022-08-21T11:13:50;27.50;90.10
44990;DHT22;30723;51.206;3.326;2022-08-21T11:19:09;28.70;85.70
44990;DHT22;30723;51.206;3.326;2022-08-21T11:27:12;26.40;90.90
44990;DHT22;30723;51.206;3.326;2022-08-21T11:29:43;26.10;91.60
44990;DHT22;30723;51.206;3.326;2022-08-21T11:35:39;26.00;92.90
44990;DHT22;30723;51.206;3.326;2022-08-21T11:38:33;26.70;92.10
44990;DHT22;30723;51.206;3.326;2022-08-21T11:47:21;26.80;92.20
44990;DHT22;30723;51.206;3.326;2022-08-21T11:53:05;28.80;88.60
44990;DHT22;30723;51.206;3.326;2022-08-21T11:56:47;29.20;86.70
44990;DHT22;30723;51.206;3.326;2022-08-21T11:59:18;29.20;86.30
44990;DHT22;30723;51.206;3.326;2022-08-21T12:01:51;28.30;86.00
44990;DHT22;30723;51.206;3.326;2022-08-21T12:04:28;27.40;87.50
44990;DHT22;30723;51.206;3.326;2022-08-21T12:07:10;26.40;90.20
44990;DHT22;30723;51.206;3.326;2022-08-21T12:09:37;25.80;91.90
44990;DHT22;30723;51.206;3.326;2022-08-21T12:12:23;25.60;92.50
44990;DHT22;30723;51.206;3.326;2022-08-21T12:15:06;25.20;92.30
44990;DHT22;30723;51.206;3.326;2022-08-21T12:17:39;24.80;93.90
44990;DHT22;30723;51.206;3.326;2022-08-21T12:20:22;24.90;93.90
44990;DHT22;30723;51.206;3.326;2022-08-21T12:23:27;24.70;93.90
44990;DHT22;30723;51.206;3.326;2022-08-21T12:28:45;24.30;94.80
44990;DHT22;30723;51.206;3.326;2022-08-21T12:31:24;24.40;95.30
44990;DHT22;30723;51.206;3.326;2022-08-21T12:34:16;24.90;95.00
44990;DHT22;30723;51.206;3.326;2022-08-21T12:36:48;25.40;94.10
44990;DHT22;30723;51.206;3.326;2022-08-21T12:39:21;27.50;92.10
44990;DHT22;30723;51.206;3.326;2022-08-21T12:44:57;32.30;82.90
44990;DHT22;30723;51.206;3.326;2022-08-21T12:47:54;33.90;78.20
44990;DHT22;30723;51.206;3.326;2022-08-21T12:50:50;34.70;72.30
44990;DHT22;30723;51.206;3.326;2022-08-21T12:56:14;34.00;70.90
44990;DHT22;30723;51.206;3.326;2022-08-21T12:58:47;33.60;69.20
44990;DHT22;30723;51.206;3.326;2022-08-21T13:01:27;33.30;71.60
44990;DHT22;30723;51.206;3.326;2022-08-21T13:03:58;33.70;68.40
44990;DHT22;30723;51.206;3.326;2022-08-21T13:06:29;34.20;67.90
44990;DHT22;30723;51.206;3.326;2022-08-21T13:09:04;34.20;66.80
44990;DHT22;30723;51.206;3.326;2022-08-21T13:11:33;33.50;67.50
44990;DHT22;30723;51.206;3.326;2022-08-21T13:14:03;33.50;69.50
44990;DHT22;30723;51.206;3.326;2022-08-21T13:16:31;33.60;68.50
44990;DHT22;30723;51.206;3.326;2022-08-21T13:19:04;33.80;68.30
44990;DHT22;30723;51.206;3.326;2022-08-21T13:21:34;33.50;68.50
44990;DHT22;30723;51.206;3.326;2022-08-21T13:24:15;32.70;68.80
44990;DHT22;30723;51.206;3.326;2022-08-21T13:26:43;32.20;70.70
44990;DHT22;30723;51.206;3.326;2022-08-21T13:29:11;30.60;74.50
44990;DHT22;30723;51.206;3.326;2022-08-21T13:31:41;30.10;76.00
44990;DHT22;30723;51.206;3.326;2022-08-21T13:34:10;29.80;76.70
44990;DHT22;30723;51.206;3.326;2022-08-21T13:36:39;29.60;77.00
44990;DHT22;30723;51.206;3.326;2022-08-21T13:39:12;29.20;77.70
44990;DHT22;30723;51.206;3.326;2022-08-21T13:41:43;29.10;79.30
44990;DHT22;30723;51.206;3.326;2022-08-21T13:44:22;28.40;79.60
44990;DHT22;30723;51.206;3.326;2022-08-21T13:46:53;28.20;80.90
44990;DHT22;30723;51.206;3.326;2022-08-21T13:49:34;27.80;82.50
44990;DHT22;30723;51.206;3.326;2022-08-21T13:52:02;27.70;83.50
44990;DHT22;30723;51.206;3.326;2022-08-21T13:54:38;27.60;85.30
44990;DHT22;30723;51.206;3.326;2022-08-21T13:57:17;27.30;86.10
44990;DHT22;30723;51.206;3.326;2022-08-21T13:59:44;27.20;87.80
44990;DHT22;30723;51.206;3.326;2022-08-21T14:02:23;26.80;89.50
44990;DHT22;30723;51.206;3.326;2022-08-21T14:05:01;26.50;90.90
44990;DHT22;30723;51.206;3.326;2022-08-21T14:07:50;26.60;90.60
44990;DHT22;30723;51.206;3.326;2022-08-21T14:10:21;26.40;91.20
44990;DHT22;30723;51.206;3.326;2022-08-21T14:15:18;26.20;91.70
44990;DHT22;30723;51.206;3.326;2022-08-21T14:17:45;26.40;92.40
44990;DHT22;30723;51.206;3.326;2022-08-21T14:20:33;26.40;91.80
44990;DHT22;30723;51.206;3.326;2022-08-21T14:23:00;26.10;92.40
44990;DHT22;30723;51.206;3.326;2022-08-21T14:25:37;26.00;92.80
44990;DHT22;30723;51.206;3.326;2022-08-21T14:30:37;25.70;93.40
44990;DHT22;30723;51.206;3.326;2022-08-21T14:33:09;25.80;93.30
44990;DHT22;30723;51.206;3.326;2022-08-21T14:35:37;26.00;94.30
44990;DHT22;30723;51.206;3.326;2022-08-21T14:38:13;26.30;94.20
44990;DHT22;30723;51.206;3.326;2022-08-21T14:40:40;26.60;93.80
44990;DHT22;30723;51.206;3.326;2022-08-21T14:43:08;26.60;93.10
44990;DHT22;30723;51.206;3.326;2022-08-21T14:45:36;26.70;94.00
44990;DHT22;30723;51.206;3.326;2022-08-21T14:48:05;27.20;93.60
44990;DHT22;30723;51.206;3.326;2022-08-21T14:50:31;27.80;92.40
44990;DHT22;30723;51.206;3.326;2022-08-21T14:52:58;27.70;91.90
44990;DHT22;30723;51.206;3.326;2022-08-21T14:55:25;27.10;91.90
44990;DHT22;30723;51.206;3.326;2022-08-21T14:57:54;27.40;93.40
44990;DHT22;30723;51.206;3.326;2022-08-21T15:00:23;27.60;92.10
44990;DHT22;30723;51.206;3.326;2022-08-21T15:02:51;27.50;93.10
44990;DHT22;30723;51.206;3.326;2022-08-21T15:05:18;27.60;92.30
44990;DHT22;30723;51.206;3.326;2022-08-21T15:07:45;27.50;92.50
44990;DHT22;30723;51.206;3.326;2022-08-21T15:10:12;27.20;93.10
44990;DHT22;30723;51.206;3.326;2022-08-21T15:12:40;27.20;92.90
44990;DHT22;30723;51.206;3.326;2022-08-21T15:15:08;27.50;93.30
44990;DHT22;30723;51.206;3.326;2022-08-21T15:17:36;28.00;92.10
44990;DHT22;30723;51.206;3.326;2022-08-21T15:20:05;29.20;91.00
44990;DHT22;30723;51.206;3.326;2022-08-21T15:22:32;30.30;88.60
44990;DHT22;30723;51.206;3.326;2022-08-21T15:24:59;32.20;84.80
44990;DHT22;30723;51.206;3.326;2022-08-21T15:27:27;33.60;79.10
44990;DHT22;30723;51.206;3.326;2022-08-21T15:29:54;34.00;76.90
44990;DHT22;30723;51.206;3.326;2022-08-21T15:32:24;33.00;78.50
44990;DHT22;30723;51.206;3.326;2022-08-21T15:34:53;31.50;79.60
44990;DHT22;30723;51.206;3.326;2022-08-21T15:37:21;30.70;83.60
44990;DHT22;30723;51.206;3.326;2022-08-21T15:39:50;29.90;85.00
44990;DHT22;30723;51.206;3.326;2022-08-21T15:42:17;29.20;86.20
44990;DHT22;30723;51.206;3.326;2022-08-21T15:44:44;28.60;89.60
44990;DHT22;30723;51.206;3.326;2022-08-21T15:47:37;28.20;90.30
44990;DHT22;30723;51.206;3.326;2022-08-21T15:50:07;27.80;91.10
44990;DHT22;30723;51.206;3.326;2022-08-21T15:52:34;27.50;91.70
44990;DHT22;30723;51.206;3.326;2022-08-21T15:55:02;27.40;92.10
44990;DHT22;30723;51.206;3.326;2022-08-21T15:57:29;27.20;92.40
44990;DHT22;30723;51.206;3.326;2022-08-21T16:00:16;27.20;93.10
44990;DHT22;30723;51.206;3.326;2022-08-21T16:02:46;26.80;93.50
44990;DHT22;30723;51.206;3.326;2022-08-21T16:05:15;26.70;93.80
44990;DHT22;30723;51.206;3.326;2022-08-21T16:07:44;26.60;94.10
44990;DHT22;30723;51.206;3.326;2022-08-21T16:10:13;26.70;94.40
44990;DHT22;30723;51.206;3.326;2022-08-21T16:12:55;26.50;95.10
44990;DHT22;30723;51.206;3.326;2022-08-21T16:15:23;26.40;94.90
44990;DHT22;30723;51.206;3.326;2022-08-21T16:17:50;26.30;94.80
44990;DHT22;30723;51.206;3.326;2022-08-21T16:20:25;25.70;96.50
44990;DHT22;30723;51.206;3.326;2022-08-21T16:22:53;25.40;96.90
44990;DHT22;30723;51.206;3.326;2022-08-21T16:25:21;25.20;96.80
44990;DHT22;30723;51.206;3.326;2022-08-21T16:27:52;25.20;96.70
44990;DHT22;30723;51.206;3.326;2022-08-21T16:30:20;25.20;97.40
44990;DHT22;30723;51.206;3.326;2022-08-21T16:32:47;24.90;97.60
44990;DHT22;30723;51.206;3.326;2022-08-21T16:35:17;24.60;98.50
44990;DHT22;30723;51.206;3.326;2022-08-21T16:37:44;24.50;99.40
44990;DHT22;30723;51.206;3.326;2022-08-21T16:40:12;24.30;99.90
44990;DHT22;30723;51.206;3.326;2022-08-21T16:42:40;24.20;99.90
44990;DHT22;30723;51.206;3.326;2022-08-21T16:45:10;24.20;99.90
44990;DHT22;30723;51.206;3.326;2022-08-21T16:47:37;24.10;99.90
44990;DHT22;30723;51.206;3.326;2022-08-21T16:50:06;24.10;99.90
44990;DHT22;30723;51.206;3.326;2022-08-21T16:52:34;24.10;99.90
44990;DHT22;30723;51.206;3.326;2022-08-21T16:55:01;24.00;99.90
44990;DHT22;30723;51.206;3.326;2022-08-21T16:57:27;23.90;99.90
44990;DHT22;30723;51.206;3.326;2022-08-21T16:59:54;23.80;99.90
44990;DHT22;30723;51.206;3.326;2022-08-21T17:02:32;23.90;99.90
44990;DHT22;30723;51.206;3.326;2022-08-21T17:05:01;23.90;99.90
44990;DHT22;30723;51.206;3.326;2022-08-21T17:07:28;23.90;99.90
44990;DHT22;30723;51.206;3.326;2022-08-21T17:09:55;24.00;99.90